首页
METAR-TAF:

METAR-TAF

机场 :

蒂米什瓦拉, 罗马尼亚

纬度: 45-46N, 经度: 021-15E, 海拔: 86米

当前天气观测

该预报发布于37分钟前的09:00 UTC
风速7节,风向
温度 30°C
湿度 40%
气压 1011 hPa
能见度10公里或以上
少量云层高于5000英尺, 积雨云.

METAR: LRTR 200900Z 19007KT 9999 FEW050CB 30/15 Q1011

时间: 12:37 (09:37 UTC)

预报

该预报发布于4小时和37分钟前的05:00 UTC
预报有效从20日的 06点(UTC)到 21日的 06点(UTC)
风速4节,风向多变
能见度10公里或以上
1500米以下无云,无积雨云
短暂存在
从 20日的 06点(UTC)到 20日的 09点(UTC)
少量云层高于4000英尺, 积雨云.
成为
从 20日的 09点(UTC)到 20日的 11点(UTC)
风速12节,风向东转东南
几率 30% :
短暂存在
从 20日的 12点(UTC)到 20日的 18点(UTC)
风速25节,风向多变
能見度: 5000
散云层高于4000英尺, 积雨云.
雷暴, 小雨
成为
从 20日的 18点(UTC)到 20日的 20点(UTC)
风速10节,风向
散云层高于4000英尺, 积雨云.
短暂存在
从 20日的 20点(UTC)到 21日的 00点(UTC)
能見度: 3000
雷暴, 雨
几率 30% :
短暂存在
从 20日的 20点(UTC)到 20日的 23点(UTC)
风速20节,风向多变,有时为30节阵风
能見度: 1500
雷暴, 大雨
短暂存在
从 21日的 00点(UTC)到 21日的 04点(UTC)
风速4节,风向多变
能見度: 5000
阵雨
成为
从 21日的 04点(UTC)到 21日的 06点(UTC)
风速4节,风向多变

TAF: LRTR 200500Z 2006/2106 VRB04KT CAVOK TEMPO 2006/2009 FEW040CB BECMG 2009/2011 11012KT PROB30 TEMPO 2012/2018 VRB25KT 5000 -TSRA SCT040CB BECMG 2018/2020 17010KT SCT040CB TEMPO 2020/2100 3000 TSRA PROB30 TEMPO 2020/2023 VRB20G30KT 1500 +TSRA TEMPO 2100/2104 VRB04KT 5000 SHRA BECMG 2104/2106 VRB04KT NSC

超过4000个机场的气象观测和天气预报(METAR&TAF报告)。

可查询的气象台以黄色和红色小点在地图上表示。

将鼠标移到小点上方,可查看气象台名称。

然后点击查看天气观测和预报。

如需切换地图:点击带黑十字的绿色按钮放大地图;点击带横线的绿色按钮缩小地图;或者点击绿色箭头查看邻近地区的地图。


METAR-TAF: